sensor_id;sensor_type;location;lat;lon;timestamp;P1;durP1;ratioP1;P2;durP2;ratioP2
595;SDS011;19946;49.306;11.350;2024-01-27T00:00:11;15.00;;;14.70;;
595;SDS011;19946;49.306;11.350;2024-01-27T00:03:23;12.13;;;11.93;;
595;SDS011;19946;49.306;11.350;2024-01-27T00:06:26;12.53;;;12.33;;
595;SDS011;19946;49.306;11.350;2024-01-27T00:09:29;12.40;;;12.20;;
595;SDS011;19946;49.306;11.350;2024-01-27T00:12:38;14.73;;;14.43;;
595;SDS011;19946;49.306;11.350;2024-01-27T00:15:41;14.00;;;13.70;;
595;SDS011;19946;49.306;11.350;2024-01-27T00:18:45;17.87;;;17.47;;
595;SDS011;19946;49.306;11.350;2024-01-27T00:21:52;20.90;;;20.40;;
595;SDS011;19946;49.306;11.350;2024-01-27T00:24:59;32.80;;;31.90;;
595;SDS011;19946;49.306;11.350;2024-01-27T00:28:07;38.20;;;37.20;;
595;SDS011;19946;49.306;11.350;2024-01-27T00:31:16;40.70;;;39.60;;
595;SDS011;19946;49.306;11.350;2024-01-27T00:38:17;34.33;;;33.43;;
595;SDS011;19946;49.306;11.350;2024-01-27T00:41:51;38.60;;;37.50;;
595;SDS011;19946;49.306;11.350;2024-01-27T00:45:37;41.70;;;40.50;;
595;SDS011;19946;49.306;11.350;2024-01-27T00:49:00;42.60;;;41.40;;
595;SDS011;19946;49.306;11.350;2024-01-27T00:52:38;52.67;;;51.07;;
595;SDS011;19946;49.306;11.350;2024-01-27T00:56:13;53.00;;;51.40;;
595;SDS011;19946;49.306;11.350;2024-01-27T00:59:43;55.40;;;53.70;;
595;SDS011;19946;49.306;11.350;2024-01-27T01:04:08;39.60;;;38.50;;
595;SDS011;19946;49.306;11.350;2024-01-27T01:07:34;43.43;;;42.20;;
595;SDS011;19946;49.306;11.350;2024-01-27T01:11:04;40.30;;;39.20;;
595;SDS011;19946;49.306;11.350;2024-01-27T01:14:21;40.37;;;39.27;;
595;SDS011;19946;49.306;11.350;2024-01-27T01:21:46;31.53;;;30.73;;
595;SDS011;19946;49.306;11.350;2024-01-27T01:24:52;35.63;;;34.63;;
595;SDS011;19946;49.306;11.350;2024-01-27T01:28:21;35.43;;;34.43;;
595;SDS011;19946;49.306;11.350;2024-01-27T01:32:03;38.07;;;36.97;;
595;SDS011;19946;49.306;11.350;2024-01-27T01:35:26;37.80;;;36.70;;
595;SDS011;19946;49.306;11.350;2024-01-27T01:38:32;42.43;;;41.23;;
595;SDS011;19946;49.306;11.350;2024-01-27T01:42:30;43.43;;;42.13;;
595;SDS011;19946;49.306;11.350;2024-01-27T01:46:22;52.30;;;50.70;;
595;SDS011;19946;49.306;11.350;2024-01-27T01:53:47;54.67;;;52.97;;
595;SDS011;19946;49.306;11.350;2024-01-27T01:57:39;52.13;;;50.53;;
595;SDS011;19946;49.306;11.350;2024-01-27T02:01:03;58.60;;;56.70;;
595;SDS011;19946;49.306;11.350;2024-01-27T02:04:49;59.73;;;57.83;;
595;SDS011;19946;49.306;11.350;2024-01-27T02:08:09;61.73;;;59.73;;
595;SDS011;19946;49.306;11.350;2024-01-27T02:11:22;65.40;;;63.27;;
595;SDS011;19946;49.306;11.350;2024-01-27T02:15:40;68.90;;;66.60;;
595;SDS011;19946;49.306;11.350;2024-01-27T02:18:41;69.23;;;66.93;;
595;SDS011;19946;49.306;11.350;2024-01-27T02:21:42;72.50;;;70.10;;
595;SDS011;19946;49.306;11.350;2024-01-27T02:24:46;71.73;;;69.33;;
595;SDS011;19946;49.306;11.350;2024-01-27T02:27:49;75.07;;;72.57;;
595;SDS011;19946;49.306;11.350;2024-01-27T02:30:50;78.40;;;75.70;;
595;SDS011;19946;49.306;11.350;2024-01-27T02:33:50;74.80;;;72.30;;
595;SDS011;19946;49.306;11.350;2024-01-27T02:36:52;68.50;;;66.20;;
595;SDS011;19946;49.306;11.350;2024-01-27T02:39:53;61.50;;;59.50;;
595;SDS011;19946;49.306;11.350;2024-01-27T02:42:54;51.00;;;49.40;;
595;SDS011;19946;49.306;11.350;2024-01-27T02:45:55;49.67;;;48.17;;
595;SDS011;19946;49.306;11.350;2024-01-27T02:48:56;48.47;;;46.97;;
595;SDS011;19946;49.306;11.350;2024-01-27T02:51:57;50.03;;;48.53;;
595;SDS011;19946;49.306;11.350;2024-01-27T02:54:58;48.00;;;46.50;;
595;SDS011;19946;49.306;11.350;2024-01-27T02:57:59;45.83;;;44.43;;
595;SDS011;19946;49.306;11.350;2024-01-27T03:01:00;43.80;;;42.50;;
595;SDS011;19946;49.306;11.350;2024-01-27T03:04:01;48.30;;;46.80;;
595;SDS011;19946;49.306;11.350;2024-01-27T03:07:02;46.13;;;44.73;;
595;SDS011;19946;49.306;11.350;2024-01-27T03:10:03;46.30;;;44.90;;
595;SDS011;19946;49.306;11.350;2024-01-27T03:13:05;50.20;;;48.63;;
595;SDS011;19946;49.306;11.350;2024-01-27T03:16:08;54.07;;;52.37;;
595;SDS011;19946;49.306;11.350;2024-01-27T03:19:13;52.13;;;50.53;;
595;SDS011;19946;49.306;11.350;2024-01-27T03:22:14;50.20;;;48.70;;
595;SDS011;19946;49.306;11.350;2024-01-27T03:25:15;51.83;;;50.23;;
595;SDS011;19946;49.306;11.350;2024-01-27T03:28:16;55.03;;;53.27;;
595;SDS011;19946;49.306;11.350;2024-01-27T03:31:17;55.00;;;53.20;;
595;SDS011;19946;49.306;11.350;2024-01-27T03:34:18;55.17;;;53.37;;
595;SDS011;19946;49.306;11.350;2024-01-27T03:37:24;54.07;;;52.37;;
595;SDS011;19946;49.306;11.350;2024-01-27T03:40:25;54.90;;;53.20;;
595;SDS011;19946;49.306;11.350;2024-01-27T03:43:27;56.43;;;54.63;;
595;SDS011;19946;49.306;11.350;2024-01-27T03:46:29;57.43;;;55.63;;
595;SDS011;19946;49.306;11.350;2024-01-27T03:49:30;55.80;;;54.00;;
595;SDS011;19946;49.306;11.350;2024-01-27T03:52:31;58.37;;;56.47;;
595;SDS011;19946;49.306;11.350;2024-01-27T03:55:32;58.37;;;56.47;;
595;SDS011;19946;49.306;11.350;2024-01-27T03:58:34;55.60;;;53.80;;
595;SDS011;19946;49.306;11.350;2024-01-27T04:01:40;56.53;;;54.73;;
595;SDS011;19946;49.306;11.350;2024-01-27T04:04:41;58.93;;;56.93;;
595;SDS011;19946;49.306;11.350;2024-01-27T04:07:42;58.50;;;56.50;;
595;SDS011;19946;49.306;11.350;2024-01-27T04:10:44;56.57;;;54.67;;
595;SDS011;19946;49.306;11.350;2024-01-27T04:13:45;55.03;;;53.23;;
595;SDS011;19946;49.306;11.350;2024-01-27T04:16:46;27.50;;;26.80;;
595;SDS011;19946;49.306;11.350;2024-01-27T04:19:46;19.47;;;18.97;;
595;SDS011;19946;49.306;11.350;2024-01-27T04:22:48;16.07;;;15.73;;
595;SDS011;19946;49.306;11.350;2024-01-27T04:25:50;13.97;;;13.67;;
595;SDS011;19946;49.306;11.350;2024-01-27T04:28:54;11.40;;;11.20;;
595;SDS011;19946;49.306;11.350;2024-01-27T04:31:55;8.97;;;8.87;;
595;SDS011;19946;49.306;11.350;2024-01-27T04:34:56;7.00;;;6.90;;
595;SDS011;19946;49.306;11.350;2024-01-27T04:37:57;6.70;;;6.60;;
595;SDS011;19946;49.306;11.350;2024-01-27T04:40:57;7.43;;;7.33;;
595;SDS011;19946;49.306;11.350;2024-01-27T04:43:57;7.27;;;7.17;;
595;SDS011;19946;49.306;11.350;2024-01-27T04:46:59;6.30;;;6.20;;
595;SDS011;19946;49.306;11.350;2024-01-27T04:49:59;6.90;;;6.80;;
595;SDS011;19946;49.306;11.350;2024-01-27T04:53:00;8.60;;;8.50;;
595;SDS011;19946;49.306;11.350;2024-01-27T04:56:01;6.23;;;6.13;;
595;SDS011;19946;49.306;11.350;2024-01-27T04:59:01;5.20;;;5.20;;
595;SDS011;19946;49.306;11.350;2024-01-27T05:02:02;5.30;;;5.30;;
595;SDS011;19946;49.306;11.350;2024-01-27T05:05:02;5.93;;;5.87;;
595;SDS011;19946;49.306;11.350;2024-01-27T05:08:03;6.00;;;5.90;;
595;SDS011;19946;49.306;11.350;2024-01-27T05:11:04;5.50;;;5.50;;
595;SDS011;19946;49.306;11.350;2024-01-27T05:14:04;5.40;;;5.40;;
595;SDS011;19946;49.306;11.350;2024-01-27T05:17:05;6.60;;;6.50;;
595;SDS011;19946;49.306;11.350;2024-01-27T05:20:06;7.70;;;7.60;;
595;SDS011;19946;49.306;11.350;2024-01-27T05:23:07;7.90;;;7.80;;
595;SDS011;19946;49.306;11.350;2024-01-27T05:26:08;8.00;;;7.90;;
595;SDS011;19946;49.306;11.350;2024-01-27T05:29:10;7.10;;;7.00;;
595;SDS011;19946;49.306;11.350;2024-01-27T05:32:11;7.10;;;7.00;;
595;SDS011;19946;49.306;11.350;2024-01-27T05:35:11;8.20;;;8.10;;
595;SDS011;19946;49.306;11.350;2024-01-27T05:38:11;7.17;;;7.07;;
595;SDS011;19946;49.306;11.350;2024-01-27T05:41:12;7.63;;;7.53;;
595;SDS011;19946;49.306;11.350;2024-01-27T05:44:12;7.60;;;7.50;;
595;SDS011;19946;49.306;11.350;2024-01-27T05:47:13;8.17;;;8.07;;
595;SDS011;19946;49.306;11.350;2024-01-27T05:50:13;6.30;;;6.20;;
595;SDS011;19946;49.306;11.350;2024-01-27T05:53:14;6.30;;;6.20;;
595;SDS011;19946;49.306;11.350;2024-01-27T05:56:17;7.43;;;7.33;;
595;SDS011;19946;49.306;11.350;2024-01-27T05:59:20;7.00;;;6.90;;
595;SDS011;19946;49.306;11.350;2024-01-27T06:02:21;7.80;;;7.70;;
595;SDS011;19946;49.306;11.350;2024-01-27T06:05:21;5.90;;;5.80;;
595;SDS011;19946;49.306;11.350;2024-01-27T06:08:22;6.87;;;6.77;;
595;SDS011;19946;49.306;11.350;2024-01-27T06:11:26;6.47;;;6.37;;
595;SDS011;19946;49.306;11.350;2024-01-27T06:14:26;6.17;;;6.07;;
595;SDS011;19946;49.306;11.350;2024-01-27T06:17:27;6.40;;;6.30;;
595;SDS011;19946;49.306;11.350;2024-01-27T06:20:28;6.80;;;6.70;;
595;SDS011;19946;49.306;11.350;2024-01-27T06:23:28;6.10;;;6.00;;
595;SDS011;19946;49.306;11.350;2024-01-27T06:26:29;6.20;;;6.10;;
595;SDS011;19946;49.306;11.350;2024-01-27T06:29:30;6.30;;;6.20;;
595;SDS011;19946;49.306;11.350;2024-01-27T06:32:30;6.63;;;6.53;;
595;SDS011;19946;49.306;11.350;2024-01-27T06:35:31;6.57;;;6.47;;
595;SDS011;19946;49.306;11.350;2024-01-27T06:38:32;7.03;;;6.93;;
595;SDS011;19946;49.306;11.350;2024-01-27T06:41:33;6.47;;;6.37;;
595;SDS011;19946;49.306;11.350;2024-01-27T06:44:34;5.70;;;5.70;;
595;SDS011;19946;49.306;11.350;2024-01-27T06:47:35;5.30;;;5.30;;
595;SDS011;19946;49.306;11.350;2024-01-27T06:50:36;6.77;;;6.67;;
595;SDS011;19946;49.306;11.350;2024-01-27T06:53:37;7.57;;;7.47;;
595;SDS011;19946;49.306;11.350;2024-01-27T06:56:38;6.37;;;6.27;;
595;SDS011;19946;49.306;11.350;2024-01-27T06:59:46;5.60;;;5.60;;
595;SDS011;19946;49.306;11.350;2024-01-27T07:02:52;5.87;;;5.83;;
595;SDS011;19946;49.306;11.350;2024-01-27T07:05:54;5.60;;;5.60;;
595;SDS011;19946;49.306;11.350;2024-01-27T07:08:55;5.77;;;5.77;;
595;SDS011;19946;49.306;11.350;2024-01-27T07:11:56;5.50;;;5.50;;
595;SDS011;19946;49.306;11.350;2024-01-27T07:14:57;4.20;;;4.20;;
595;SDS011;19946;49.306;11.350;2024-01-27T07:18:00;4.10;;;4.10;;
595;SDS011;19946;49.306;11.350;2024-01-27T07:21:01;4.23;;;4.23;;
595;SDS011;19946;49.306;11.350;2024-01-27T07:24:02;4.60;;;4.60;;
595;SDS011;19946;49.306;11.350;2024-01-27T07:27:06;5.30;;;5.30;;
595;SDS011;19946;49.306;11.350;2024-01-27T07:30:10;5.90;;;5.80;;
595;SDS011;19946;49.306;11.350;2024-01-27T07:33:11;5.10;;;5.10;;
595;SDS011;19946;49.306;11.350;2024-01-27T07:36:12;4.20;;;4.20;;
595;SDS011;19946;49.306;11.350;2024-01-27T07:39:13;2.50;;;2.50;;
595;SDS011;19946;49.306;11.350;2024-01-27T07:42:14;3.40;;;3.40;;
595;SDS011;19946;49.306;11.350;2024-01-27T07:45:19;4.40;;;4.40;;
595;SDS011;19946;49.306;11.350;2024-01-27T07:48:38;4.80;;;4.80;;
595;SDS011;19946;49.306;11.350;2024-01-27T07:52:32;3.63;;;3.63;;
595;SDS011;19946;49.306;11.350;2024-01-27T07:56:31;3.50;;;3.50;;
595;SDS011;19946;49.306;11.350;2024-01-27T08:00:29;4.03;;;4.03;;
595;SDS011;19946;49.306;11.350;2024-01-27T08:04:03;3.00;;;3.00;;
595;SDS011;19946;49.306;11.350;2024-01-27T08:07:37;3.30;;;3.30;;
595;SDS011;19946;49.306;11.350;2024-01-27T08:11:12;4.87;;;4.87;;
595;SDS011;19946;49.306;11.350;2024-01-27T08:14:23;3.80;;;3.80;;
595;SDS011;19946;49.306;11.350;2024-01-27T08:17:47;4.17;;;4.17;;
595;SDS011;19946;49.306;11.350;2024-01-27T08:21:12;3.10;;;3.10;;
595;SDS011;19946;49.306;11.350;2024-01-27T08:25:02;3.67;;;3.67;;
595;SDS011;19946;49.306;11.350;2024-01-27T08:29:23;3.70;;;3.70;;
595;SDS011;19946;49.306;11.350;2024-01-27T08:33:06;3.77;;;3.77;;
595;SDS011;19946;49.306;11.350;2024-01-27T08:37:01;3.90;;;3.90;;
595;SDS011;19946;49.306;11.350;2024-01-27T08:44:19;4.10;;;4.10;;
595;SDS011;19946;49.306;11.350;2024-01-27T08:47:52;3.93;;;3.93;;
595;SDS011;19946;49.306;11.350;2024-01-27T08:50:54;3.87;;;3.87;;
595;SDS011;19946;49.306;11.350;2024-01-27T08:53:55;4.30;;;4.30;;
595;SDS011;19946;49.306;11.350;2024-01-27T08:56:59;5.03;;;5.03;;
595;SDS011;19946;49.306;11.350;2024-01-27T09:00:07;5.00;;;5.00;;
595;SDS011;19946;49.306;11.350;2024-01-27T09:03:09;6.60;;;6.50;;
595;SDS011;19946;49.306;11.350;2024-01-27T09:06:12;7.23;;;7.13;;
595;SDS011;19946;49.306;11.350;2024-01-27T09:09:16;9.47;;;9.37;;
595;SDS011;19946;49.306;11.350;2024-01-27T09:12:20;26.60;;;25.90;;
595;SDS011;19946;49.306;11.350;2024-01-27T09:15:21;33.97;;;33.07;;
595;SDS011;19946;49.306;11.350;2024-01-27T09:18:22;19.13;;;18.70;;
595;SDS011;19946;49.306;11.350;2024-01-27T09:21:23;23.20;;;22.60;;
595;SDS011;19946;49.306;11.350;2024-01-27T09:24:28;15.00;;;14.70;;
595;SDS011;19946;49.306;11.350;2024-01-27T09:27:29;13.70;;;13.40;;
595;SDS011;19946;49.306;11.350;2024-01-27T09:30:30;12.27;;;12.07;;
595;SDS011;19946;49.306;11.350;2024-01-27T09:33:31;8.00;;;7.90;;
595;SDS011;19946;49.306;11.350;2024-01-27T09:36:34;9.73;;;9.53;;
595;SDS011;19946;49.306;11.350;2024-01-27T09:39:36;6.40;;;6.30;;
595;SDS011;19946;49.306;11.350;2024-01-27T09:42:36;5.70;;;5.67;;
595;SDS011;19946;49.306;11.350;2024-01-27T09:45:41;5.90;;;5.83;;
595;SDS011;19946;49.306;11.350;2024-01-27T09:48:42;6.10;;;6.00;;
595;SDS011;19946;49.306;11.350;2024-01-27T09:51:46;5.20;;;5.20;;
595;SDS011;19946;49.306;11.350;2024-01-27T09:54:51;6.10;;;6.00;;
595;SDS011;19946;49.306;11.350;2024-01-27T09:57:51;6.87;;;6.77;;
595;SDS011;19946;49.306;11.350;2024-01-27T10:00:53;8.13;;;8.03;;
595;SDS011;19946;49.306;11.350;2024-01-27T10:03:57;10.20;;;10.00;;
595;SDS011;19946;49.306;11.350;2024-01-27T10:07:01;10.90;;;10.70;;
595;SDS011;19946;49.306;11.350;2024-01-27T10:10:02;9.90;;;9.70;;
595;SDS011;19946;49.306;11.350;2024-01-27T10:13:04;10.30;;;10.10;;
595;SDS011;19946;49.306;11.350;2024-01-27T10:16:06;9.30;;;9.20;;
595;SDS011;19946;49.306;11.350;2024-01-27T10:19:12;9.10;;;9.00;;
595;SDS011;19946;49.306;11.350;2024-01-27T10:26:02;10.27;;;10.07;;
595;SDS011;19946;49.306;11.350;2024-01-27T10:29:03;9.80;;;9.60;;
595;SDS011;19946;49.306;11.350;2024-01-27T10:32:09;8.50;;;8.40;;
595;SDS011;19946;49.306;11.350;2024-01-27T10:35:10;8.63;;;8.53;;
595;SDS011;19946;49.306;11.350;2024-01-27T10:41:36;8.57;;;8.47;;
595;SDS011;19946;49.306;11.350;2024-01-27T10:44:39;7.83;;;7.73;;
595;SDS011;19946;49.306;11.350;2024-01-27T10:47:42;9.10;;;9.00;;
595;SDS011;19946;49.306;11.350;2024-01-27T10:50:44;8.43;;;8.33;;
595;SDS011;19946;49.306;11.350;2024-01-27T10:53:48;9.77;;;9.57;;
595;SDS011;19946;49.306;11.350;2024-01-27T10:56:53;9.10;;;9.00;;
595;SDS011;19946;49.306;11.350;2024-01-27T10:59:56;8.53;;;8.43;;
595;SDS011;19946;49.306;11.350;2024-01-27T11:02:59;10.50;;;10.30;;
595;SDS011;19946;49.306;11.350;2024-01-27T11:06:03;8.27;;;8.17;;
595;SDS011;19946;49.306;11.350;2024-01-27T11:09:05;7.73;;;7.63;;
595;SDS011;19946;49.306;11.350;2024-01-27T11:12:08;7.80;;;7.70;;
595;SDS011;19946;49.306;11.350;2024-01-27T11:15:11;7.40;;;7.30;;
595;SDS011;19946;49.306;11.350;2024-01-27T11:18:13;6.30;;;6.20;;
595;SDS011;19946;49.306;11.350;2024-01-27T11:21:16;7.47;;;7.37;;
595;SDS011;19946;49.306;11.350;2024-01-27T11:24:18;7.70;;;7.60;;
595;SDS011;19946;49.306;11.350;2024-01-27T11:27:19;7.00;;;6.90;;
595;SDS011;19946;49.306;11.350;2024-01-27T11:30:30;7.10;;;7.00;;
595;SDS011;19946;49.306;11.350;2024-01-27T11:33:43;7.87;;;7.77;;
595;SDS011;19946;49.306;11.350;2024-01-27T11:36:46;7.10;;;7.00;;
595;SDS011;19946;49.306;11.350;2024-01-27T11:39:48;6.83;;;6.73;;
595;SDS011;19946;49.306;11.350;2024-01-27T11:42:55;7.33;;;7.23;;
595;SDS011;19946;49.306;11.350;2024-01-27T11:45:58;7.00;;;6.90;;
595;SDS011;19946;49.306;11.350;2024-01-27T11:49:00;6.90;;;6.80;;
595;SDS011;19946;49.306;11.350;2024-01-27T11:52:01;6.90;;;6.80;;
595;SDS011;19946;49.306;11.350;2024-01-27T11:55:02;7.73;;;7.63;;
595;SDS011;19946;49.306;11.350;2024-01-27T11:58:04;7.20;;;7.10;;
595;SDS011;19946;49.306;11.350;2024-01-27T12:01:05;6.30;;;6.20;;
595;SDS011;19946;49.306;11.350;2024-01-27T12:04:06;6.37;;;6.27;;
595;SDS011;19946;49.306;11.350;2024-01-27T12:07:07;7.20;;;7.10;;
595;SDS011;19946;49.306;11.350;2024-01-27T12:10:09;8.47;;;8.37;;
595;SDS011;19946;49.306;11.350;2024-01-27T12:13:10;5.57;;;5.57;;
595;SDS011;19946;49.306;11.350;2024-01-27T12:16:11;6.60;;;6.50;;
595;SDS011;19946;49.306;11.350;2024-01-27T12:19:13;6.80;;;6.70;;
595;SDS011;19946;49.306;11.350;2024-01-27T12:22:29;6.00;;;5.90;;
595;SDS011;19946;49.306;11.350;2024-01-27T12:25:33;6.00;;;5.90;;
595;SDS011;19946;49.306;11.350;2024-01-27T12:28:34;6.20;;;6.10;;
595;SDS011;19946;49.306;11.350;2024-01-27T12:31:38;5.87;;;5.80;;
595;SDS011;19946;49.306;11.350;2024-01-27T12:34:41;5.37;;;5.37;;
595;SDS011;19946;49.306;11.350;2024-01-27T12:37:43;6.10;;;6.00;;
595;SDS011;19946;49.306;11.350;2024-01-27T12:40:43;6.50;;;6.40;;
595;SDS011;19946;49.306;11.350;2024-01-27T12:43:44;5.80;;;5.80;;
595;SDS011;19946;49.306;11.350;2024-01-27T12:46:44;5.40;;;5.40;;
595;SDS011;19946;49.306;11.350;2024-01-27T12:49:44;5.20;;;5.20;;
595;SDS011;19946;49.306;11.350;2024-01-27T12:52:45;5.07;;;5.07;;
595;SDS011;19946;49.306;11.350;2024-01-27T12:55:45;5.20;;;5.20;;
595;SDS011;19946;49.306;11.350;2024-01-27T12:58:46;4.90;;;4.90;;
595;SDS011;19946;49.306;11.350;2024-01-27T13:01:46;5.90;;;5.83;;
595;SDS011;19946;49.306;11.350;2024-01-27T13:04:46;5.50;;;5.50;;
595;SDS011;19946;49.306;11.350;2024-01-27T13:07:46;5.87;;;5.83;;
595;SDS011;19946;49.306;11.350;2024-01-27T13:10:48;5.70;;;5.70;;
595;SDS011;19946;49.306;11.350;2024-01-27T13:13:49;5.43;;;5.43;;
595;SDS011;19946;49.306;11.350;2024-01-27T13:16:50;5.40;;;5.40;;
595;SDS011;19946;49.306;11.350;2024-01-27T13:19:51;5.40;;;5.40;;
595;SDS011;19946;49.306;11.350;2024-01-27T13:22:51;5.63;;;5.63;;
595;SDS011;19946;49.306;11.350;2024-01-27T13:25:53;6.10;;;6.00;;
595;SDS011;19946;49.306;11.350;2024-01-27T13:28:54;5.73;;;5.73;;
595;SDS011;19946;49.306;11.350;2024-01-27T13:31:54;5.50;;;5.50;;
595;SDS011;19946;49.306;11.350;2024-01-27T13:34:54;5.50;;;5.50;;
595;SDS011;19946;49.306;11.350;2024-01-27T13:37:55;5.23;;;5.23;;
595;SDS011;19946;49.306;11.350;2024-01-27T13:40:55;5.13;;;5.13;;
595;SDS011;19946;49.306;11.350;2024-01-27T13:43:55;5.20;;;5.20;;
595;SDS011;19946;49.306;11.350;2024-01-27T13:46:55;5.33;;;5.33;;
595;SDS011;19946;49.306;11.350;2024-01-27T13:50:00;5.20;;;5.20;;
595;SDS011;19946;49.306;11.350;2024-01-27T13:53:01;4.70;;;4.70;;
595;SDS011;19946;49.306;11.350;2024-01-27T13:56:01;4.60;;;4.60;;
595;SDS011;19946;49.306;11.350;2024-01-27T13:59:01;4.50;;;4.50;;
595;SDS011;19946;49.306;11.350;2024-01-27T14:02:04;4.60;;;4.60;;
595;SDS011;19946;49.306;11.350;2024-01-27T14:05:04;4.53;;;4.53;;
595;SDS011;19946;49.306;11.350;2024-01-27T14:08:05;4.70;;;4.70;;
595;SDS011;19946;49.306;11.350;2024-01-27T14:11:07;4.30;;;4.30;;
595;SDS011;19946;49.306;11.350;2024-01-27T14:14:07;4.60;;;4.60;;
595;SDS011;19946;49.306;11.350;2024-01-27T14:17:08;5.00;;;5.00;;
595;SDS011;19946;49.306;11.350;2024-01-27T14:20:09;4.50;;;4.50;;
595;SDS011;19946;49.306;11.350;2024-01-27T14:23:10;4.53;;;4.53;;
595;SDS011;19946;49.306;11.350;2024-01-27T14:26:10;4.10;;;4.10;;
595;SDS011;19946;49.306;11.350;2024-01-27T14:29:14;4.20;;;4.20;;
595;SDS011;19946;49.306;11.350;2024-01-27T14:32:17;4.20;;;4.20;;
595;SDS011;19946;49.306;11.350;2024-01-27T14:35:18;3.97;;;3.97;;
595;SDS011;19946;49.306;11.350;2024-01-27T14:38:19;3.90;;;3.90;;
595;SDS011;19946;49.306;11.350;2024-01-27T14:41:20;4.17;;;4.17;;
595;SDS011;19946;49.306;11.350;2024-01-27T14:44:20;4.90;;;4.90;;
595;SDS011;19946;49.306;11.350;2024-01-27T14:47:22;5.00;;;5.00;;
595;SDS011;19946;49.306;11.350;2024-01-27T14:50:22;4.33;;;4.33;;
595;SDS011;19946;49.306;11.350;2024-01-27T14:53:23;4.10;;;4.10;;
595;SDS011;19946;49.306;11.350;2024-01-27T14:56:27;4.00;;;4.00;;
595;SDS011;19946;49.306;11.350;2024-01-27T14:59:28;3.70;;;3.70;;
595;SDS011;19946;49.306;11.350;2024-01-27T15:02:29;4.70;;;4.70;;
595;SDS011;19946;49.306;11.350;2024-01-27T15:05:29;4.33;;;4.33;;
595;SDS011;19946;49.306;11.350;2024-01-27T15:08:30;4.40;;;4.40;;
595;SDS011;19946;49.306;11.350;2024-01-27T15:11:30;4.20;;;4.20;;
595;SDS011;19946;49.306;11.350;2024-01-27T15:14:31;4.00;;;4.00;;
595;SDS011;19946;49.306;11.350;2024-01-27T15:17:31;3.60;;;3.60;;
595;SDS011;19946;49.306;11.350;2024-01-27T15:20:32;3.20;;;3.20;;
595;SDS011;19946;49.306;11.350;2024-01-27T15:23:32;3.23;;;3.23;;
595;SDS011;19946;49.306;11.350;2024-01-27T15:26:34;3.00;;;3.00;;
595;SDS011;19946;49.306;11.350;2024-01-27T15:29:34;3.10;;;3.10;;
595;SDS011;19946;49.306;11.350;2024-01-27T15:32:34;2.60;;;2.60;;
595;SDS011;19946;49.306;11.350;2024-01-27T15:35:36;3.10;;;3.10;;
595;SDS011;19946;49.306;11.350;2024-01-27T15:38:37;4.23;;;4.23;;
595;SDS011;19946;49.306;11.350;2024-01-27T15:41:37;3.87;;;3.87;;
595;SDS011;19946;49.306;11.350;2024-01-27T15:44:37;3.20;;;3.20;;
595;SDS011;19946;49.306;11.350;2024-01-27T15:47:38;3.80;;;3.80;;
595;SDS011;19946;49.306;11.350;2024-01-27T15:50:38;3.97;;;3.97;;
595;SDS011;19946;49.306;11.350;2024-01-27T15:53:39;4.20;;;4.20;;
595;SDS011;19946;49.306;11.350;2024-01-27T15:56:39;4.37;;;4.37;;
595;SDS011;19946;49.306;11.350;2024-01-27T15:59:40;4.17;;;4.17;;
595;SDS011;19946;49.306;11.350;2024-01-27T16:02:41;4.77;;;4.77;;
595;SDS011;19946;49.306;11.350;2024-01-27T16:05:41;5.00;;;5.00;;
595;SDS011;19946;49.306;11.350;2024-01-27T16:08:41;5.20;;;5.20;;
595;SDS011;19946;49.306;11.350;2024-01-27T16:11:42;6.20;;;6.10;;
595;SDS011;19946;49.306;11.350;2024-01-27T16:14:42;6.20;;;6.10;;
595;SDS011;19946;49.306;11.350;2024-01-27T16:17:42;6.70;;;6.60;;
595;SDS011;19946;49.306;11.350;2024-01-27T16:20:45;6.13;;;6.03;;
595;SDS011;19946;49.306;11.350;2024-01-27T16:23:49;7.20;;;7.10;;
595;SDS011;19946;49.306;11.350;2024-01-27T16:26:50;8.53;;;8.43;;
595;SDS011;19946;49.306;11.350;2024-01-27T16:29:50;5.37;;;5.37;;
595;SDS011;19946;49.306;11.350;2024-01-27T16:32:51;6.20;;;6.10;;
595;SDS011;19946;49.306;11.350;2024-01-27T16:35:51;8.17;;;8.07;;
595;SDS011;19946;49.306;11.350;2024-01-27T16:38:51;9.67;;;9.53;;
595;SDS011;19946;49.306;11.350;2024-01-27T16:41:52;7.47;;;7.37;;
595;SDS011;19946;49.306;11.350;2024-01-27T16:44:52;9.00;;;8.90;;
595;SDS011;19946;49.306;11.350;2024-01-27T16:47:53;22.60;;;22.10;;
595;SDS011;19946;49.306;11.350;2024-01-27T16:50:53;18.93;;;18.53;;
595;SDS011;19946;49.306;11.350;2024-01-27T16:53:53;13.20;;;12.90;;
595;SDS011;19946;49.306;11.350;2024-01-27T16:56:54;12.20;;;12.00;;
595;SDS011;19946;49.306;11.350;2024-01-27T16:59:56;8.67;;;8.57;;
595;SDS011;19946;49.306;11.350;2024-01-27T17:02:56;10.20;;;10.00;;
595;SDS011;19946;49.306;11.350;2024-01-27T17:05:57;8.20;;;8.10;;
595;SDS011;19946;49.306;11.350;2024-01-27T17:08:59;9.07;;;8.97;;
595;SDS011;19946;49.306;11.350;2024-01-27T17:12:02;12.70;;;12.50;;
595;SDS011;19946;49.306;11.350;2024-01-27T17:15:02;13.17;;;12.90;;
595;SDS011;19946;49.306;11.350;2024-01-27T17:18:06;14.93;;;14.63;;
595;SDS011;19946;49.306;11.350;2024-01-27T17:21:06;8.13;;;8.03;;
595;SDS011;19946;49.306;11.350;2024-01-27T17:24:06;7.80;;;7.70;;
595;SDS011;19946;49.306;11.350;2024-01-27T17:27:07;11.10;;;10.90;;
595;SDS011;19946;49.306;11.350;2024-01-27T17:30:07;15.70;;;15.40;;
595;SDS011;19946;49.306;11.350;2024-01-27T17:33:10;17.40;;;17.00;;
595;SDS011;19946;49.306;11.350;2024-01-27T17:36:11;14.53;;;14.23;;
595;SDS011;19946;49.306;11.350;2024-01-27T17:39:11;13.20;;;12.90;;
595;SDS011;19946;49.306;11.350;2024-01-27T17:42:12;10.03;;;9.83;;
595;SDS011;19946;49.306;11.350;2024-01-27T17:45:12;13.87;;;13.57;;
595;SDS011;19946;49.306;11.350;2024-01-27T17:48:12;31.50;;;30.70;;
595;SDS011;19946;49.306;11.350;2024-01-27T17:51:13;17.60;;;17.20;;
595;SDS011;19946;49.306;11.350;2024-01-27T17:54:14;22.50;;;22.00;;
595;SDS011;19946;49.306;11.350;2024-01-27T17:57:14;21.13;;;20.63;;
595;SDS011;19946;49.306;11.350;2024-01-27T18:00:15;31.00;;;30.20;;
595;SDS011;19946;49.306;11.350;2024-01-27T18:03:18;29.10;;;28.40;;
595;SDS011;19946;49.306;11.350;2024-01-27T18:06:18;27.50;;;26.80;;
595;SDS011;19946;49.306;11.350;2024-01-27T18:09:18;27.70;;;27.00;;
595;SDS011;19946;49.306;11.350;2024-01-27T18:12:19;25.03;;;24.33;;
595;SDS011;19946;49.306;11.350;2024-01-27T18:15:19;24.73;;;24.13;;
595;SDS011;19946;49.306;11.350;2024-01-27T18:18:19;20.70;;;20.20;;
595;SDS011;19946;49.306;11.350;2024-01-27T18:21:20;9.77;;;9.60;;
595;SDS011;19946;49.306;11.350;2024-01-27T18:24:20;5.53;;;5.53;;
595;SDS011;19946;49.306;11.350;2024-01-27T18:27:21;5.00;;;5.00;;
595;SDS011;19946;49.306;11.350;2024-01-27T18:30:22;5.30;;;5.20;;
595;SDS011;19946;49.306;11.350;2024-01-27T18:33:22;5.17;;;5.17;;
595;SDS011;19946;49.306;11.350;2024-01-27T18:36:24;4.80;;;4.80;;
595;SDS011;19946;49.306;11.350;2024-01-27T18:39:24;3.53;;;3.53;;
595;SDS011;19946;49.306;11.350;2024-01-27T18:42:24;2.60;;;2.60;;
595;SDS011;19946;49.306;11.350;2024-01-27T18:45:25;2.50;;;2.50;;
595;SDS011;19946;49.306;11.350;2024-01-27T18:48:25;2.10;;;2.10;;
595;SDS011;19946;49.306;11.350;2024-01-27T18:51:25;2.40;;;2.40;;
595;SDS011;19946;49.306;11.350;2024-01-27T18:54:26;4.50;;;4.50;;
595;SDS011;19946;49.306;11.350;2024-01-27T18:57:26;3.60;;;3.60;;
595;SDS011;19946;49.306;11.350;2024-01-27T19:00:26;2.80;;;2.80;;
595;SDS011;19946;49.306;11.350;2024-01-27T19:03:28;2.40;;;2.40;;
595;SDS011;19946;49.306;11.350;2024-01-27T19:06:28;0.80;;;0.80;;